sensor_id;sensor_type;location;lat;lon;timestamp;pressure;altitude;pressure_sealevel;temperature;humidity
6567;BME280;3317;43.994;22.878;2023-04-08T00:01:13;101304.38;;;7.91;64.00
6567;BME280;3317;43.994;22.878;2023-04-08T00:03:40;101303.41;;;7.92;63.42
6567;BME280;3317;43.994;22.878;2023-04-08T00:06:07;101298.97;;;7.91;63.22
6567;BME280;3317;43.994;22.878;2023-04-08T00:08:34;101295.16;;;7.82;62.71
6567;BME280;3317;43.994;22.878;2023-04-08T00:11:01;101311.50;;;7.92;62.88
6567;BME280;3317;43.994;22.878;2023-04-08T00:13:30;101307.19;;;7.89;63.13
6567;BME280;3317;43.994;22.878;2023-04-08T00:15:57;101252.84;;;7.60;63.34
6567;BME280;3317;43.994;22.878;2023-04-08T00:18:24;101309.78;;;7.91;63.93
6567;BME280;3317;43.994;22.878;2023-04-08T00:20:51;101303.50;;;7.91;64.83
6567;BME280;3317;43.994;22.878;2023-04-08T00:23:18;101310.63;;;7.92;64.19
6567;BME280;3317;43.994;22.878;2023-04-08T00:25:45;101310.50;;;7.93;62.79
6567;BME280;3317;43.994;22.878;2023-04-08T00:28:12;101249.41;;;7.58;62.62
6567;BME280;3317;43.994;22.878;2023-04-08T00:30:41;101315.19;;;7.91;62.56
6567;BME280;3317;43.994;22.878;2023-04-08T00:33:08;101310.25;;;7.85;62.55
6567;BME280;3317;43.994;22.878;2023-04-08T00:35:34;101319.81;;;7.89;63.74
6567;BME280;3317;43.994;22.878;2023-04-08T00:38:01;101315.19;;;7.91;65.48
6567;BME280;3317;43.994;22.878;2023-04-08T00:40:32;101315.66;;;7.85;66.50
6567;BME280;3317;43.994;22.878;2023-04-08T00:43:00;101316.88;;;7.81;67.35
6567;BME280;3317;43.994;22.878;2023-04-08T00:45:26;101317.63;;;7.83;66.82
6567;BME280;3317;43.994;22.878;2023-04-08T00:47:55;101318.59;;;7.82;64.73
6567;BME280;3317;43.994;22.878;2023-04-08T00:50:22;101320.78;;;7.77;64.07
6567;BME280;3317;43.994;22.878;2023-04-08T00:52:49;101317.34;;;7.74;66.35
6567;BME280;3317;43.994;22.878;2023-04-08T00:55:16;101318.34;;;7.73;67.40
6567;BME280;3317;43.994;22.878;2023-04-08T00:57:43;101321.16;;;7.72;65.99
6567;BME280;3317;43.994;22.878;2023-04-08T01:00:11;101280.03;;;7.45;65.25
6567;BME280;3317;43.994;22.878;2023-04-08T01:02:41;101317.72;;;7.70;64.59
6567;BME280;3317;43.994;22.878;2023-04-08T01:05:14;101319.56;;;7.69;65.59
6567;BME280;3317;43.994;22.878;2023-04-08T01:07:47;101313.06;;;7.60;67.32
6567;BME280;3317;43.994;22.878;2023-04-08T01:10:17;101309.34;;;7.50;68.27
6567;BME280;3317;43.994;22.878;2023-04-08T01:12:49;101316.34;;;7.41;69.66
6567;BME280;3317;43.994;22.878;2023-04-08T01:15:17;101318.28;;;7.39;69.85
6567;BME280;3317;43.994;22.878;2023-04-08T01:17:45;101314.44;;;7.30;69.99
6567;BME280;3317;43.994;22.878;2023-04-08T01:20:15;101314.06;;;7.24;70.56
6567;BME280;3317;43.994;22.878;2023-04-08T01:22:54;101315.53;;;7.16;70.79
6567;BME280;3317;43.994;22.878;2023-04-08T01:25:31;101302.16;;;7.15;70.96
6567;BME280;3317;43.994;22.878;2023-04-08T01:28:02;101310.81;;;7.07;71.18
6567;BME280;3317;43.994;22.878;2023-04-08T01:30:31;101311.91;;;7.04;71.69
6567;BME280;3317;43.994;22.878;2023-04-08T01:33:00;101315.59;;;7.03;71.56
6567;BME280;3317;43.994;22.878;2023-04-08T01:35:29;101309.34;;;7.03;71.99
6567;BME280;3317;43.994;22.878;2023-04-08T01:37:57;101312.72;;;6.94;71.95
6567;BME280;3317;43.994;22.878;2023-04-08T01:40:25;101313.06;;;6.89;72.28
6567;BME280;3317;43.994;22.878;2023-04-08T01:42:54;101308.38;;;6.80;72.40
6567;BME280;3317;43.994;22.878;2023-04-08T01:45:24;101319.03;;;6.81;72.61
6567;BME280;3317;43.994;22.878;2023-04-08T01:47:51;101322.63;;;6.82;72.69
6567;BME280;3317;43.994;22.878;2023-04-08T01:50:19;101321.75;;;6.81;72.75
6567;BME280;3317;43.994;22.878;2023-04-08T01:52:48;101328.34;;;6.77;73.11
6567;BME280;3317;43.994;22.878;2023-04-08T01:55:18;101283.50;;;6.52;72.85
6567;BME280;3317;43.994;22.878;2023-04-08T01:57:48;101334.97;;;6.84;72.95
6567;BME280;3317;43.994;22.878;2023-04-08T02:00:19;101337.56;;;6.86;72.58
6567;BME280;3317;43.994;22.878;2023-04-08T02:02:48;101328.41;;;6.88;72.39
6567;BME280;3317;43.994;22.878;2023-04-08T02:05:16;101324.84;;;6.88;72.76
6567;BME280;3317;43.994;22.878;2023-04-08T02:07:43;101334.00;;;6.85;72.77
6567;BME280;3317;43.994;22.878;2023-04-08T02:10:11;101336.19;;;6.80;72.58
6567;BME280;3317;43.994;22.878;2023-04-08T02:12:38;101326.28;;;6.81;72.60
6567;BME280;3317;43.994;22.878;2023-04-08T02:15:06;101333.50;;;6.80;72.65
6567;BME280;3317;43.994;22.878;2023-04-08T02:17:39;101330.81;;;6.80;72.86
6567;BME280;3317;43.994;22.878;2023-04-08T02:20:15;101327.75;;;6.85;72.65
6567;BME280;3317;43.994;22.878;2023-04-08T02:22:48;101335.50;;;6.89;72.41
6567;BME280;3317;43.994;22.878;2023-04-08T02:25:22;101331.09;;;6.88;72.37
6567;BME280;3317;43.994;22.878;2023-04-08T02:27:51;101338.19;;;6.89;71.77
6567;BME280;3317;43.994;22.878;2023-04-08T02:30:18;101328.56;;;6.98;71.22
6567;BME280;3317;43.994;22.878;2023-04-08T02:32:47;101334.34;;;7.05;71.03
6567;BME280;3317;43.994;22.878;2023-04-08T02:35:17;101327.25;;;7.04;71.18
6567;BME280;3317;43.994;22.878;2023-04-08T02:37:45;101327.47;;;7.01;70.94
6567;BME280;3317;43.994;22.878;2023-04-08T02:40:24;101335.81;;;7.09;71.16
6567;BME280;3317;43.994;22.878;2023-04-08T02:42:52;101346.41;;;7.12;70.63
6567;BME280;3317;43.994;22.878;2023-04-08T02:45:20;101348.09;;;7.13;69.95
6567;BME280;3317;43.994;22.878;2023-04-08T02:47:47;101347.13;;;7.14;69.95
6567;BME280;3317;43.994;22.878;2023-04-08T02:50:14;101351.53;;;7.15;69.88
6567;BME280;3317;43.994;22.878;2023-04-08T02:52:42;101344.53;;;7.13;70.01
6567;BME280;3317;43.994;22.878;2023-04-08T02:55:09;101341.00;;;7.12;69.97
6567;BME280;3317;43.994;22.878;2023-04-08T02:57:37;101342.09;;;7.10;69.84
6567;BME280;3317;43.994;22.878;2023-04-08T03:00:06;101351.78;;;7.12;69.70
6567;BME280;3317;43.994;22.878;2023-04-08T03:02:33;101358.03;;;7.13;68.58
6567;BME280;3317;43.994;22.878;2023-04-08T03:05:01;101356.94;;;7.15;68.42
6567;BME280;3317;43.994;22.878;2023-04-08T03:07:28;101360.47;;;7.16;68.83
6567;BME280;3317;43.994;22.878;2023-04-08T03:09:56;101362.09;;;7.18;69.19
6567;BME280;3317;43.994;22.878;2023-04-08T03:12:23;101364.69;;;7.20;69.22
6567;BME280;3317;43.994;22.878;2023-04-08T03:14:52;101363.47;;;7.24;67.87
6567;BME280;3317;43.994;22.878;2023-04-08T03:17:19;101347.88;;;7.16;67.36
6567;BME280;3317;43.994;22.878;2023-04-08T03:19:46;101362.72;;;7.22;66.46
6567;BME280;3317;43.994;22.878;2023-04-08T03:22:13;101372.19;;;7.28;65.92
6567;BME280;3317;43.994;22.878;2023-04-08T03:24:41;101367.00;;;7.25;65.78
6567;BME280;3317;43.994;22.878;2023-04-08T03:27:10;101378.03;;;7.22;66.28
6567;BME280;3317;43.994;22.878;2023-04-08T03:29:37;101367.59;;;7.17;66.46
6567;BME280;3317;43.994;22.878;2023-04-08T03:32:04;101375.56;;;7.18;66.33
6567;BME280;3317;43.994;22.878;2023-04-08T03:34:32;101378.50;;;7.15;66.36
6567;BME280;3317;43.994;22.878;2023-04-08T03:36:59;101384.97;;;7.13;66.55
6567;BME280;3317;43.994;22.878;2023-04-08T03:39:26;101384.56;;;7.06;66.57
6567;BME280;3317;43.994;22.878;2023-04-08T03:41:53;101386.53;;;7.04;68.01
6567;BME280;3317;43.994;22.878;2023-04-08T03:44:22;101394.47;;;7.05;68.78
6567;BME280;3317;43.994;22.878;2023-04-08T03:46:48;101350.88;;;6.76;69.60
6567;BME280;3317;43.994;22.878;2023-04-08T03:49:17;101399.03;;;7.05;69.62
6567;BME280;3317;43.994;22.878;2023-04-08T03:51:44;101397.06;;;7.07;70.02
6567;BME280;3317;43.994;22.878;2023-04-08T03:54:11;101396.84;;;7.10;69.37
6567;BME280;3317;43.994;22.878;2023-04-08T03:56:38;101402.03;;;7.13;68.05
6567;BME280;3317;43.994;22.878;2023-04-08T03:59:05;101400.31;;;7.12;67.47
6567;BME280;3317;43.994;22.878;2023-04-08T04:01:33;101407.19;;;7.16;66.53
6567;BME280;3317;43.994;22.878;2023-04-08T04:04:00;101397.72;;;7.11;66.87
6567;BME280;3317;43.994;22.878;2023-04-08T04:06:27;101400.50;;;7.09;69.10
6567;BME280;3317;43.994;22.878;2023-04-08T04:08:54;101400.75;;;7.06;69.68
6567;BME280;3317;43.994;22.878;2023-04-08T04:11:21;101396.91;;;6.97;70.47
6567;BME280;3317;43.994;22.878;2023-04-08T04:13:48;101395.53;;;6.92;71.46
6567;BME280;3317;43.994;22.878;2023-04-08T04:16:15;101402.63;;;6.93;71.13
6567;BME280;3317;43.994;22.878;2023-04-08T04:18:43;101401.75;;;6.92;71.24
6567;BME280;3317;43.994;22.878;2023-04-08T04:21:10;101395.53;;;6.92;71.19
6567;BME280;3317;43.994;22.878;2023-04-08T04:23:37;101397.47;;;6.89;71.40
6567;BME280;3317;43.994;22.878;2023-04-08T04:26:07;101394.88;;;6.88;72.17
6567;BME280;3317;43.994;22.878;2023-04-08T04:28:34;101388.59;;;6.76;72.65
6567;BME280;3317;43.994;22.878;2023-04-08T04:31:01;101396.75;;;6.74;73.15
6567;BME280;3317;43.994;22.878;2023-04-08T04:33:28;101405.41;;;6.67;73.49
6567;BME280;3317;43.994;22.878;2023-04-08T04:35:56;101407.38;;;6.65;74.12
6567;BME280;3317;43.994;22.878;2023-04-08T04:38:23;101378.22;;;6.45;74.42
6567;BME280;3317;43.994;22.878;2023-04-08T04:40:51;101402.75;;;6.54;74.57
6567;BME280;3317;43.994;22.878;2023-04-08T04:43:18;101403.72;;;6.53;74.82
6567;BME280;3317;43.994;22.878;2023-04-08T04:45:46;101409.31;;;6.50;75.14
6567;BME280;3317;43.994;22.878;2023-04-08T04:48:12;101409.47;;;6.48;75.42
6567;BME280;3317;43.994;22.878;2023-04-08T04:50:40;101407.84;;;6.45;75.23
6567;BME280;3317;43.994;22.878;2023-04-08T04:53:08;101414.84;;;6.48;75.47
6567;BME280;3317;43.994;22.878;2023-04-08T04:55:35;101410.31;;;6.48;75.57
6567;BME280;3317;43.994;22.878;2023-04-08T04:58:02;101413.88;;;6.49;75.59
6567;BME280;3317;43.994;22.878;2023-04-08T05:00:28;101413.63;;;6.52;75.54
6567;BME280;3317;43.994;22.878;2023-04-08T05:02:55;101416.88;;;6.44;75.81
6567;BME280;3317;43.994;22.878;2023-04-08T05:05:23;101407.41;;;6.39;76.21
6567;BME280;3317;43.994;22.878;2023-04-08T05:07:50;101412.47;;;6.43;76.15
6567;BME280;3317;43.994;22.878;2023-04-08T05:10:18;101421.16;;;6.47;76.23
6567;BME280;3317;43.994;22.878;2023-04-08T05:12:45;101413.31;;;6.44;76.04
6567;BME280;3317;43.994;22.878;2023-04-08T05:15:13;101402.78;;;6.41;76.32
6567;BME280;3317;43.994;22.878;2023-04-08T05:17:40;101417.16;;;6.53;76.19
6567;BME280;3317;43.994;22.878;2023-04-08T05:20:07;101417.41;;;6.50;76.46
6567;BME280;3317;43.994;22.878;2023-04-08T05:22:34;101416.34;;;6.52;76.60
6567;BME280;3317;43.994;22.878;2023-04-08T05:25:01;101416.97;;;6.56;76.70
6567;BME280;3317;43.994;22.878;2023-04-08T05:27:29;101413.97;;;6.60;76.80
6567;BME280;3317;43.994;22.878;2023-04-08T05:29:56;101413.25;;;6.70;75.85
6567;BME280;3317;43.994;22.878;2023-04-08T05:32:23;101419.19;;;6.75;75.87
6567;BME280;3317;43.994;22.878;2023-04-08T05:34:50;101416.13;;;6.80;75.77
6567;BME280;3317;43.994;22.878;2023-04-08T05:37:17;101414.22;;;6.82;75.74
6567;BME280;3317;43.994;22.878;2023-04-08T05:39:44;101393.97;;;6.76;74.32
6567;BME280;3317;43.994;22.878;2023-04-08T05:42:11;101347.81;;;6.56;73.56
6567;BME280;3317;43.994;22.878;2023-04-08T05:44:39;101414.97;;;7.08;72.73
6567;BME280;3317;43.994;22.878;2023-04-08T05:47:08;101410.84;;;7.15;72.05
6567;BME280;3317;43.994;22.878;2023-04-08T05:49:35;101416.63;;;7.22;71.79
6567;BME280;3317;43.994;22.878;2023-04-08T05:52:02;101421.06;;;7.23;71.57
6567;BME280;3317;43.994;22.878;2023-04-08T05:54:29;101428.06;;;7.26;71.82
6567;BME280;3317;43.994;22.878;2023-04-08T05:56:56;101423.16;;;7.31;73.67
6567;BME280;3317;43.994;22.878;2023-04-08T05:59:23;101436.81;;;7.41;74.25
6567;BME280;3317;43.994;22.878;2023-04-08T06:01:51;101439.16;;;7.45;73.54
6567;BME280;3317;43.994;22.878;2023-04-08T06:04:19;101436.13;;;7.50;73.89
6567;BME280;3317;43.994;22.878;2023-04-08T06:06:46;101437.34;;;7.57;73.48
6567;BME280;3317;43.994;22.878;2023-04-08T06:09:13;101437.78;;;7.64;72.86
6567;BME280;3317;43.994;22.878;2023-04-08T06:11:40;101434.50;;;7.72;72.24
6567;BME280;3317;43.994;22.878;2023-04-08T06:14:07;101432.19;;;7.79;72.09
6567;BME280;3317;43.994;22.878;2023-04-08T06:16:34;101435.66;;;7.92;70.59
6567;BME280;3317;43.994;22.878;2023-04-08T06:19:02;101428.91;;;7.98;70.19
6567;BME280;3317;43.994;22.878;2023-04-08T06:21:29;101435.66;;;8.03;70.29
6567;BME280;3317;43.994;22.878;2023-04-08T06:23:56;101428.53;;;8.14;70.63
6567;BME280;3317;43.994;22.878;2023-04-08T06:26:24;101445.50;;;8.16;70.27
6567;BME280;3317;43.994;22.878;2023-04-08T06:28:52;101436.03;;;8.22;70.81
6567;BME280;3317;43.994;22.878;2023-04-08T06:31:19;101439.88;;;8.30;70.47
6567;BME280;3317;43.994;22.878;2023-04-08T06:33:46;101439.88;;;8.42;70.92
6567;BME280;3317;43.994;22.878;2023-04-08T06:36:14;101436.47;;;8.51;71.30
6567;BME280;3317;43.994;22.878;2023-04-08T06:38:41;101442.00;;;8.61;71.90
6567;BME280;3317;43.994;22.878;2023-04-08T06:41:08;101441.34;;;8.80;72.04
6567;BME280;3317;43.994;22.878;2023-04-08T06:43:35;101444.03;;;8.92;71.36
6567;BME280;3317;43.994;22.878;2023-04-08T06:46:02;101447.97;;;8.99;71.47
6567;BME280;3317;43.994;22.878;2023-04-08T06:48:29;101445.00;;;9.02;70.16
6567;BME280;3317;43.994;22.878;2023-04-08T06:50:56;101447.84;;;9.00;68.71
6567;BME280;3317;43.994;22.878;2023-04-08T06:53:25;101441.44;;;9.01;68.50
6567;BME280;3317;43.994;22.878;2023-04-08T06:55:53;101414.38;;;9.13;68.10
6567;BME280;3317;43.994;22.878;2023-04-08T06:58:20;101446.34;;;9.40;68.06
6567;BME280;3317;43.994;22.878;2023-04-08T07:00:48;101451.72;;;9.52;67.70
6567;BME280;3317;43.994;22.878;2023-04-08T07:03:14;101442.34;;;9.56;68.28
6567;BME280;3317;43.994;22.878;2023-04-08T07:05:41;101454.94;;;9.78;67.82
6567;BME280;3317;43.994;22.878;2023-04-08T07:08:09;101449.03;;;9.94;66.94
6567;BME280;3317;43.994;22.878;2023-04-08T07:10:37;101451.56;;;10.07;66.96
6567;BME280;3317;43.994;22.878;2023-04-08T07:13:04;101448.38;;;10.23;66.35
6567;BME280;3317;43.994;22.878;2023-04-08T07:15:31;101463.09;;;10.31;66.28
6567;BME280;3317;43.994;22.878;2023-04-08T07:17:58;101450.50;;;10.41;64.42
6567;BME280;3317;43.994;22.878;2023-04-08T07:20:25;101446.38;;;10.47;63.63
6567;BME280;3317;43.994;22.878;2023-04-08T07:22:52;101445.06;;;10.41;62.08
6567;BME280;3317;43.994;22.878;2023-04-08T07:25:19;101439.09;;;10.47;62.01
6567;BME280;3317;43.994;22.878;2023-04-08T07:27:47;101448.31;;;10.66;63.04
6567;BME280;3317;43.994;22.878;2023-04-08T07:30:14;101445.66;;;10.45;61.01
6567;BME280;3317;43.994;22.878;2023-04-08T07:32:41;101453.84;;;10.54;60.94
6567;BME280;3317;43.994;22.878;2023-04-08T07:35:08;101455.81;;;10.52;59.52
6567;BME280;3317;43.994;22.878;2023-04-08T07:37:35;101451.34;;;10.41;59.01
6567;BME280;3317;43.994;22.878;2023-04-08T07:40:02;101457.25;;;10.56;59.37
6567;BME280;3317;43.994;22.878;2023-04-08T07:42:29;101457.03;;;10.69;60.71
6567;BME280;3317;43.994;22.878;2023-04-08T07:44:57;101455.28;;;10.59;58.95
6567;BME280;3317;43.994;22.878;2023-04-08T07:47:24;101463.72;;;10.65;58.40
6567;BME280;3317;43.994;22.878;2023-04-08T07:49:51;101464.44;;;10.67;58.37
6567;BME280;3317;43.994;22.878;2023-04-08T07:52:18;101471.31;;;10.72;58.43
6567;BME280;3317;43.994;22.878;2023-04-08T07:54:45;101469.63;;;10.80;58.29
6567;BME280;3317;43.994;22.878;2023-04-08T07:57:12;101477.03;;;10.68;57.63
6567;BME280;3317;43.994;22.878;2023-04-08T07:59:39;101477.81;;;10.59;58.30
6567;BME280;3317;43.994;22.878;2023-04-08T08:02:08;101470.13;;;10.64;58.84
6567;BME280;3317;43.994;22.878;2023-04-08T08:04:34;101481.91;;;10.84;58.62
6567;BME280;3317;43.994;22.878;2023-04-08T08:07:01;101477.09;;;10.98;58.53
6567;BME280;3317;43.994;22.878;2023-04-08T08:09:28;101481.00;;;11.15;58.37
6567;BME280;3317;43.994;22.878;2023-04-08T08:11:55;101479.88;;;11.27;57.48
6567;BME280;3317;43.994;22.878;2023-04-08T08:14:22;101482.59;;;11.18;57.21
6567;BME280;3317;43.994;22.878;2023-04-08T08:16:51;101486.59;;;11.23;56.02
6567;BME280;3317;43.994;22.878;2023-04-08T08:19:20;101459.31;;;11.25;56.22
6567;BME280;3317;43.994;22.878;2023-04-08T08:21:46;101481.75;;;11.47;56.09
6567;BME280;3317;43.994;22.878;2023-04-08T08:24:14;101457.75;;;11.52;55.77
6567;BME280;3317;43.994;22.878;2023-04-08T08:26:41;101481.59;;;11.78;55.44
6567;BME280;3317;43.994;22.878;2023-04-08T08:29:09;101488.78;;;11.89;54.86
6567;BME280;3317;43.994;22.878;2023-04-08T08:31:36;101480.63;;;11.89;53.77
6567;BME280;3317;43.994;22.878;2023-04-08T08:34:03;101484.59;;;11.84;53.37
6567;BME280;3317;43.994;22.878;2023-04-08T08:36:31;101477.19;;;11.77;53.35
6567;BME280;3317;43.994;22.878;2023-04-08T08:38:58;101485.78;;;11.82;53.60
6567;BME280;3317;43.994;22.878;2023-04-08T08:41:26;101480.47;;;11.80;53.41
6567;BME280;3317;43.994;22.878;2023-04-08T08:43:53;101484.06;;;11.81;53.94
6567;BME280;3317;43.994;22.878;2023-04-08T08:46:20;101480.06;;;11.75;53.29
6567;BME280;3317;43.994;22.878;2023-04-08T08:48:47;101480.06;;;11.75;53.55
6567;BME280;3317;43.994;22.878;2023-04-08T08:51:14;101485.19;;;11.88;53.54
6567;BME280;3317;43.994;22.878;2023-04-08T08:53:42;101480.22;;;12.03;54.74
6567;BME280;3317;43.994;22.878;2023-04-08T08:56:10;101489.78;;;12.07;54.40
6567;BME280;3317;43.994;22.878;2023-04-08T08:58:37;101488.22;;;12.05;52.95
6567;BME280;3317;43.994;22.878;2023-04-08T09:01:31;101480.72;;;11.97;52.04
6567;BME280;3317;43.994;22.878;2023-04-08T09:04:17;101482.34;;;11.80;51.18
6567;BME280;3317;43.994;22.878;2023-04-08T09:06:44;101492.91;;;11.53;51.55
6567;BME280;3317;43.994;22.878;2023-04-08T09:09:14;101495.63;;;11.44;52.06
6567;BME280;3317;43.994;22.878;2023-04-08T09:11:43;101435.13;;;10.92;52.67
6567;BME280;3317;43.994;22.878;2023-04-08T09:14:19;101489.00;;;11.17;53.44
6567;BME280;3317;43.994;22.878;2023-04-08T09:16:47;101491.16;;;11.23;53.81
6567;BME280;3317;43.994;22.878;2023-04-08T09:19:14;101494.88;;;11.22;53.84
6567;BME280;3317;43.994;22.878;2023-04-08T09:21:41;101482.72;;;11.26;54.16
6567;BME280;3317;43.994;22.878;2023-04-08T09:24:09;101487.47;;;11.44;54.27
6567;BME280;3317;43.994;22.878;2023-04-08T09:26:53;101479.19;;;11.45;54.14
6567;BME280;3317;43.994;22.878;2023-04-08T09:29:22;101489.47;;;11.61;54.19
6567;BME280;3317;43.994;22.878;2023-04-08T09:31:52;101492.03;;;11.82;54.00
6567;BME280;3317;43.994;22.878;2023-04-08T09:34:20;101490.06;;;11.65;53.22
6567;BME280;3317;43.994;22.878;2023-04-08T09:36:47;101501.78;;;11.65;53.47
6567;BME280;3317;43.994;22.878;2023-04-08T09:39:14;101477.91;;;11.59;53.26
6567;BME280;3317;43.994;22.878;2023-04-08T09:41:42;101485.63;;;11.93;53.54
6567;BME280;3317;43.994;22.878;2023-04-08T09:44:11;101488.03;;;12.26;53.98
6567;BME280;3317;43.994;22.878;2023-04-08T09:46:41;101494.28;;;12.36;53.11
6567;BME280;3317;43.994;22.878;2023-04-08T09:49:18;101485.56;;;12.43;52.60
6567;BME280;3317;43.994;22.878;2023-04-08T09:51:52;101486.00;;;12.38;52.67
6567;BME280;3317;43.994;22.878;2023-04-08T09:54:24;101489.00;;;12.35;53.09
6567;BME280;3317;43.994;22.878;2023-04-08T09:57:05;101484.53;;;12.44;53.13
6567;BME280;3317;43.994;22.878;2023-04-08T09:59:46;101493.75;;;12.33;53.15
6567;BME280;3317;43.994;22.878;2023-04-08T10:02:16;101477.97;;;12.36;53.22
6567;BME280;3317;43.994;22.878;2023-04-08T10:04:47;101487.22;;;12.53;53.04
6567;BME280;3317;43.994;22.878;2023-04-08T10:07:17;101475.25;;;12.46;52.62
6567;BME280;3317;43.994;22.878;2023-04-08T10:09:44;101470.28;;;12.32;52.25
6567;BME280;3317;43.994;22.878;2023-04-08T10:12:11;101485.72;;;12.31;52.87
6567;BME280;3317;43.994;22.878;2023-04-08T10:14:40;101480.88;;;12.25;53.17
6567;BME280;3317;43.994;22.878;2023-04-08T10:17:26;101489.22;;;12.14;52.90
6567;BME280;3317;43.994;22.878;2023-04-08T10:19:53;101492.75;;;12.14;53.74
6567;BME280;3317;43.994;22.878;2023-04-08T10:22:47;101487.47;;;12.03;54.11
6567;BME280;3317;43.994;22.878;2023-04-08T10:25:31;101479.91;;;11.96;54.66
6567;BME280;3317;43.994;22.878;2023-04-08T10:27:58;101485.47;;;12.15;54.39
6567;BME280;3317;43.994;22.878;2023-04-08T10:30:44;101479.88;;;12.26;53.96
6567;BME280;3317;43.994;22.878;2023-04-08T10:33:15;101461.88;;;12.25;54.16
6567;BME280;3317;43.994;22.878;2023-04-08T10:35:43;101482.97;;;12.41;53.78
6567;BME280;3317;43.994;22.878;2023-04-08T10:38:13;101461.97;;;12.33;53.55
6567;BME280;3317;43.994;22.878;2023-04-08T10:40:41;101456.91;;;12.48;53.26
6567;BME280;3317;43.994;22.878;2023-04-08T10:43:09;101472.19;;;12.59;52.92
6567;BME280;3317;43.994;22.878;2023-04-08T10:45:36;101477.88;;;12.66;52.93
6567;BME280;3317;43.994;22.878;2023-04-08T10:48:16;101451.56;;;12.66;52.59
6567;BME280;3317;43.994;22.878;2023-04-08T10:50:44;101460.66;;;12.75;53.07
6567;BME280;3317;43.994;22.878;2023-04-08T10:53:11;101473.44;;;12.93;52.77
6567;BME280;3317;43.994;22.878;2023-04-08T10:55:38;101471.75;;;12.92;52.07
6567;BME280;3317;43.994;22.878;2023-04-08T10:58:06;101465.78;;;12.78;52.24
6567;BME280;3317;43.994;22.878;2023-04-08T11:00:35;101477.63;;;12.59;52.00
6567;BME280;3317;43.994;22.878;2023-04-08T11:03:02;101472.75;;;12.63;51.30
6567;BME280;3317;43.994;22.878;2023-04-08T11:05:32;101444.72;;;12.52;50.99
6567;BME280;3317;43.994;22.878;2023-04-08T11:08:00;101469.63;;;12.58;50.74
6567;BME280;3317;43.994;22.878;2023-04-08T11:10:27;101460.97;;;12.72;50.74
6567;BME280;3317;43.994;22.878;2023-04-08T11:12:55;101463.78;;;12.80;50.75
6567;BME280;3317;43.994;22.878;2023-04-08T11:15:23;101461.84;;;13.19;50.59
6567;BME280;3317;43.994;22.878;2023-04-08T11:17:50;101453.13;;;13.33;49.65
6567;BME280;3317;43.994;22.878;2023-04-08T11:20:18;101455.44;;;13.56;49.76
6567;BME280;3317;43.994;22.878;2023-04-08T11:22:46;101445.66;;;13.63;48.65
6567;BME280;3317;43.994;22.878;2023-04-08T11:25:14;101448.72;;;13.87;48.59
6567;BME280;3317;43.994;22.878;2023-04-08T11:27:41;101456.66;;;13.80;47.40
6567;BME280;3317;43.994;22.878;2023-04-08T11:30:09;101448.63;;;13.97;47.58
6567;BME280;3317;43.994;22.878;2023-04-08T11:32:36;101458.31;;;14.17;47.47
6567;BME280;3317;43.994;22.878;2023-04-08T11:35:05;101443.34;;;14.21;47.52
6567;BME280;3317;43.994;22.878;2023-04-08T11:37:36;101435.34;;;14.55;47.85
6567;BME280;3317;43.994;22.878;2023-04-08T11:40:09;101433.47;;;14.55;47.86
6567;BME280;3317;43.994;22.878;2023-04-08T11:42:38;101435.56;;;14.35;47.94
6567;BME280;3317;43.994;22.878;2023-04-08T11:45:11;101430.66;;;14.39;46.80
6567;BME280;3317;43.994;22.878;2023-04-08T11:47:39;101434.53;;;14.28;47.14
6567;BME280;3317;43.994;22.878;2023-04-08T11:50:08;101436.66;;;14.42;47.35
6567;BME280;3317;43.994;22.878;2023-04-08T11:52:42;101430.03;;;14.45;45.46
6567;BME280;3317;43.994;22.878;2023-04-08T11:55:12;101439.59;;;14.49;45.88
6567;BME280;3317;43.994;22.878;2023-04-08T11:57:47;101431.88;;;14.44;45.13
6567;BME280;3317;43.994;22.878;2023-04-08T12:00:16;101425.00;;;14.67;46.14
6567;BME280;3317;43.994;22.878;2023-04-08T12:02:43;101419.97;;;14.45;45.65
6567;BME280;3317;43.994;22.878;2023-04-08T12:05:10;101422.31;;;14.40;45.92
6567;BME280;3317;43.994;22.878;2023-04-08T12:07:37;101422.47;;;14.39;45.98
6567;BME280;3317;43.994;22.878;2023-04-08T12:10:06;101395.00;;;14.32;46.72
6567;BME280;3317;43.994;22.878;2023-04-08T12:12:34;101414.38;;;14.55;46.98
6567;BME280;3317;43.994;22.878;2023-04-08T12:15:01;101418.16;;;14.62;46.74
6567;BME280;3317;43.994;22.878;2023-04-08T12:17:28;101414.91;;;14.59;46.51
6567;BME280;3317;43.994;22.878;2023-04-08T12:19:55;101393.94;;;14.59;47.75
6567;BME280;3317;43.994;22.878;2023-04-08T12:22:22;101404.31;;;14.56;47.31
6567;BME280;3317;43.994;22.878;2023-04-08T12:24:49;101404.31;;;14.56;47.87
6567;BME280;3317;43.994;22.878;2023-04-08T12:27:17;101392.00;;;14.78;48.11
6567;BME280;3317;43.994;22.878;2023-04-08T12:29:46;101376.78;;;14.75;47.48
6567;BME280;3317;43.994;22.878;2023-04-08T12:32:14;101358.03;;;14.72;47.39
6567;BME280;3317;43.994;22.878;2023-04-08T12:34:41;101387.34;;;14.70;47.13
6567;BME280;3317;43.994;22.878;2023-04-08T12:37:08;101388.44;;;14.86;47.70
6567;BME280;3317;43.994;22.878;2023-04-08T12:39:35;101345.09;;;14.83;46.77
6567;BME280;3317;43.994;22.878;2023-04-08T12:42:02;101380.78;;;14.98;46.41
6567;BME280;3317;43.994;22.878;2023-04-08T12:44:29;101358.03;;;14.72;46.92
6567;BME280;3317;43.994;22.878;2023-04-08T12:46:58;101378.31;;;14.70;46.74
6567;BME280;3317;43.994;22.878;2023-04-08T12:49:25;101374.66;;;14.53;46.98
6567;BME280;3317;43.994;22.878;2023-04-08T12:51:52;101372.22;;;14.41;46.84
6567;BME280;3317;43.994;22.878;2023-04-08T12:54:19;101362.91;;;14.17;47.52
6567;BME280;3317;43.994;22.878;2023-04-08T12:56:46;101376.59;;;14.26;47.41
6567;BME280;3317;43.994;22.878;2023-04-08T12:59:14;101364.00;;;14.33;47.04
6567;BME280;3317;43.994;22.878;2023-04-08T13:01:41;101320.66;;;14.13;47.25
6567;BME280;3317;43.994;22.878;2023-04-08T13:04:09;101365.06;;;14.40;46.48
6567;BME280;3317;43.994;22.878;2023-04-08T13:06:36;101366.72;;;14.25;46.82
6567;BME280;3317;43.994;22.878;2023-04-08T13:09:03;101352.94;;;14.34;46.96
6567;BME280;3317;43.994;22.878;2023-04-08T13:11:30;101360.09;;;14.35;46.98